Memphis, Texas
Current Conditions -  °F | °C
As of 2:53 PM on Sunday 23 Nov 2014 (Local Time) from KCDS Reporting Station
Overcast Overcast  
Wind Chill: 58°   Ceiling: 6000
Heat Index: 58°   Visibility: 10mi
Dew Point: 33°   Wind: 30mph
Humidity: 39%   Direction: 350°N
Pressure: 29.6"   Gusts: 39mph
Location:  34.72°N, 100.53°W
Report Text: KCDS 232053Z AUTO 35026G34KT 10SM OVC060 14/01 A2960 RMK AO2 PK WND 35038/1957 PRESRR SLP014 T01440006 53031
Loading
Personal Weather Stations






























Interactive Weather Map New forecast layout! Learn more

10-Day Weather Forecast

Advertisements
Track Severe Weather on mobile